Jack C. Davis Observatory, Carson City, Nevada Weather observations

Data are for observation ending at time listed.
 Day   Time    Ave.   Ave.  Ave.  Vector   Max.   Stn.    Total    Solar   Ave.  
  of    of     Air    Rel.  Wind   Wind    Wind   Baro.  Precip.   Rad.    Soil  
Year   Day     Temp.  Hum.  Speed  Dir.    Gust   Pres.                    Temp. 
2026   (PST)    F      %     mph   deg.    mph     mb.     in.     W/m2     F   
------------------------------------------------------------------------------
 128    6:10   54.0    46    1.4   318      3.5   849.8    0.00     191    999.0
 128    6:20   54.7    45    1.3    21      3.2   850.0    0.00     222    999.0
 128    6:30   55.4    44    1.2    53      3.2   850.1    0.00     259    999.0
 128    6:40   56.1    43    1.5    46      3.1   850.1    0.00     297    999.0
 128    6:50   55.9    43    2.0   107      4.2   850.1    0.00     332    999.0
 128    7:00   56.4    42    2.1    98      4.8   850.1    0.00     367    999.0
 128    7:10   55.6    43    2.3    87      5.3   850.2    0.00     402    999.0
 128    7:20   57.2    40    1.3    91      3.1   850.1    0.00     437    999.0
 128    7:30   58.3    39    2.4    70      4.2   850.2    0.00     472    999.0
 128    7:40   57.5    39    2.4    74      4.2   850.2    0.00     506    999.0
 128    7:50   59.5    36    1.8    82      3.7   850.2    0.00     540    999.0
 128    8:00   61.0    33    1.3    69      2.9   850.2    0.00     573    999.0
 128    8:10   63.4    29    0.7   123      2.2   850.1    0.00     606    999.0
 128    8:20   66.1    26    1.1   106      2.6   850.1    0.00     637    999.0
 128    8:30   65.9    27    1.9    83      5.0   850.1    0.00     668    999.0
 128    8:40   65.8    26    1.9   101      5.0   850.0    0.00     698    999.0
 128    8:50   66.2    26    3.1   122      6.6   849.9    0.00     726    999.0
 128    9:00   66.6    26    3.5   115      6.8   849.9    0.00     753    999.0
 128    9:10   67.8    25    2.7   118      6.1   849.9    0.00     780    999.0
 128    9:20   67.8    25    3.7    96      7.2   849.9    0.00     807    999.0
 128    9:30   67.8    24    2.6    72      5.8   849.8    0.00     831    999.0
 128    9:40   68.9    20    2.9    85      6.9   849.8    0.00     855    999.0
 128    9:50   69.9    20    2.1   123      5.7   849.8    0.00     877    999.0
 128   10:00   70.1    19    3.9    97      8.5   849.7    0.00     898    999.0
 128   10:10   70.9    17    3.5   122      7.2   849.7    0.00     916    999.0
 128   10:20   72.8    16    3.1   139      6.6   849.6    0.00     933    999.0
 128   10:30   71.6    16    3.0    85      6.6   849.6    0.00     953    999.0
 128   10:40   72.6    13    5.5   289     13.1   849.5    0.00     976    999.0
 128   10:50   74.1    13    7.1   284     15.4   849.3    0.00     983    999.0
 128   11:00   73.8    11    9.9   279     18.3   849.3    0.00     885    999.0
 128   11:10   74.2    12   10.9   264     18.3   849.2    0.00    1151    999.0
 128   11:20   73.8    12   10.2   242     17.2   849.1    0.00    1038    999.0
 128   11:30   74.0    12   10.2   243     18.7   849.0    0.00    1075    999.0
 128   11:40   74.7    12    9.3   245     16.3   849.0    0.00    1107    999.0
 128   11:50   75.1    12    9.0   246     17.4   848.9    0.00    1063    999.0
 128   12:00   74.3    12   12.2   247     19.6   848.9    0.00    1057    999.0
 128   12:10   74.5    12   11.6   236     17.9   848.9    0.00    1025    999.0
 128   12:20   75.1    12    9.6   246     15.9   848.8    0.00    1017    999.0
 128   12:30   75.5    12    8.1   245     15.0   848.8    0.00    1008    999.0
 128   12:40   75.4    13   10.1   247     16.1   848.7    0.00    1002    999.0
 128   12:50   75.7    13    9.1   236     16.1   848.6    0.00     998    999.0
 128   13:00   76.0    12    9.1   237     16.2   848.6    0.00     990    999.0
 128   13:10   75.9    12    8.8   239     17.1   848.5    0.00     978    999.0
 128   13:20   76.2    12    8.4   256     17.8   848.5    0.00     966    999.0
 128   13:30   77.1    13    7.7   237     14.1   848.5    0.00     952    999.0
 128   13:40   76.6    13    9.2   257     15.6   848.4    0.00     937    999.0
 128   13:50   76.2    13   10.2   246     19.9   848.4    0.00     920    999.0
 128   14:00   76.4    13    9.7   260     18.0   848.3    0.00     904    999.0
 128   14:10   76.6    13    9.7   264     18.2   848.2    0.00     885    999.0
 128   14:20   76.7    13    9.1   252     17.9   848.1    0.00     866    999.0
 128   14:30   76.3    13   10.2   239     19.4   848.0    0.00     843    999.0
 128   14:40   76.5    13   10.8   243     16.5   848.0    0.00     820    999.0
 128   14:50   76.5    13    9.5   242     16.4   847.9    0.00     794    999.0
 128   15:00   76.5    13    8.9   256     14.0   847.8    0.00     768    999.0
 128   15:10   76.7    14    9.1   250     18.7   847.8    0.00     740    999.0
 128   15:20   76.7    14    7.1   254     13.7   847.7    0.00     713    999.0
 128   15:30   76.8    14    8.5   249     15.1   847.6    0.00     685    999.0
 128   15:40   76.1    14    9.7   241     15.9   847.5    0.00     653    999.0
 128   15:50   75.7    14   10.1   242     16.7   847.5    0.00     622    999.0
 128   16:00   75.7    14   10.0   252     17.1   847.4    0.00     592    999.0
 128   16:10   75.4    14   11.1   251     17.9   847.4    0.00     559    999.0
 128   16:20   75.3    14   10.6   254     15.6   847.4    0.00     527    999.0
 128   16:30   75.3    14    9.9   256     15.2   847.3    0.00     494    999.0
 128   16:40   75.4    14    9.2   264     15.3   847.3    0.00     460    999.0
 128   16:50   74.9    15    9.7   263     16.4   847.3    0.00     426    999.0
 128   17:00   75.0    16    7.9   264     12.7   847.2    0.00     391    999.0
 128   17:10   74.7    16    8.9   266     13.9   847.1    0.00     356    999.0
 128   17:20   73.9    16   10.1   261     15.6   847.1    0.00     321    999.0
 128   17:30   73.5    17    9.0   261     17.0   847.1    0.00     286    999.0
 128   17:40   73.1    18    9.3   265     15.1   847.1    0.00     251    999.0
 128   17:50   72.4    19    9.7   265     15.0   847.1    0.00     216    999.0
 128   18:00   71.2    20    9.8   268     16.3   847.1    0.00      97    999.0
 128   18:10   69.4    20    8.0   269     13.0   847.1    0.00      20    999.0
 128   18:20   68.8    21    8.6   269     14.8   847.2    0.00      18    999.0
 128   18:30   68.4    22    7.1   267     11.5   847.2    0.00      15    999.0
 128   18:40   67.8    22    7.6   262     12.3   847.2    0.00      13    999.0
 128   18:50   66.8    23    6.7   255     10.5   847.3    0.00      10    999.0
 128   19:00   66.4    24    6.9   256     10.7   847.3    0.00       6    999.0
 128   19:10   66.3    24    7.2   258     11.5   847.4    0.00       3    999.0
 128   19:20   65.9    24    7.5   258     11.0   847.5    0.00       1    999.0
 128   19:30   65.7    24    7.7   261     11.9   847.6    0.00       0    999.0
 128   19:40   65.3    25    7.3   261     12.8   847.6    0.00       0    999.0
 128   19:50   65.2    26    7.2   268     11.4   847.7    0.00       0    999.0
 128   20:00   64.9    28    4.9   281      9.3   847.9    0.00       0    999.0
 128   20:10   65.4    27    1.7   341      4.6   848.1    0.00       0    999.0
 128   20:20   65.5    27    0.4   327      3.6   848.2    0.00       0    999.0
 128   20:30   63.5    31    3.6   256      5.6   848.2    0.00       0    999.0
 128   20:40   61.5    34    5.4   263      8.0   848.3    0.00       0    999.0
 128   20:50   62.1    32    4.9   277      7.2   848.4    0.00       0    999.0
 128   21:00   61.9    31    3.9   316      6.6   848.5    0.00       0    999.0
 128   21:10   60.3    35    4.3   288      5.9   848.6    0.00       0    999.0
 128   21:20   58.6    37    4.8   276      7.2   848.7    0.00       0    999.0
 128   21:30   57.4    38    4.1   279      6.4   848.7    0.00       0    999.0
 128   21:40   57.5    36    5.0   277      6.4   848.7    0.00       0    999.0
 128   21:50   57.2    37    4.7   275      6.6   848.7    0.00       0    999.0
 128   22:00   57.7    37    3.1   297      5.3   848.8    0.00       0    999.0
 128   22:10   58.2    37    4.9   297      7.0   848.8    0.00       0    999.0
 128   22:20   56.8    37    4.6   284      5.8   848.9    0.00       0    999.0
 128   22:30   56.1    40    4.1   290      6.0   848.9    0.00       0    999.0
 128   22:40   56.2    43    5.8   318      7.8   849.0    0.00       0    999.0
 128   22:50   55.9    43    5.6   326      8.5   849.0    0.00       0    999.0
 128   23:00   56.4    40    5.0   318      8.1   849.0    0.00       0    999.0
 128   23:10   59.9    35    5.5   284      8.0   848.9    0.00       0    999.0
 128   23:20   61.9    35    3.5   300      9.0   848.9    0.00       0    999.0
 128   23:30   59.6    37    0.4   313      2.8   848.9    0.00       0    999.0
 128   23:40   58.3    40    0.8    46      2.9   848.9    0.00       0    999.0
 128   23:50   58.1    40    1.7   327      3.4   849.0    0.00       0    999.0
 129    0:00   55.8    46    4.5   280      6.5   849.0    0.00       0    999.0
 129    0:10   55.1    49    4.4   279      5.7   849.0    0.00       0    999.0
 129    0:20   55.2    49    3.8   286      5.6   849.0    0.00       0    999.0
 129    0:30   55.6    48    3.3   306      5.8   849.0    0.00       0    999.0
 129    0:40   55.8    50    3.4   310      5.1   848.9    0.00       0    999.0
 129    0:50   55.2    50    3.1   281      4.9   848.9    0.00       0    999.0
 129    1:00   54.7    51    3.0   293      4.8   849.0    0.00       0    999.0
 129    1:10   55.3    56    3.5   330      7.3   849.1    0.00       0    999.0
 129    1:20   55.5    55    4.2   319      7.0   849.1    0.00       0    999.0
 129    1:30   53.6    56    2.9   328      5.6   849.1    0.00       0    999.0
 129    1:40   53.9    55    2.7   310      5.7   849.1    0.00       0    999.0
 129    1:50   54.0    58    3.7   317      7.1   849.1    0.00       0    999.0
 129    2:00   55.0    56    4.8   317      7.5   849.1    0.00       0    999.0
 129    2:10   55.0    54    4.4   320      6.9   849.1    0.00       0    999.0
 129    2:20   55.0    55    2.5   329      5.4   849.2    0.00       0    999.0
 129    2:30   54.1    57    3.0   308      7.3   849.2    0.00       0    999.0
 129    2:40   54.6    56    4.3   320      7.8   849.2    0.00       0    999.0
 129    2:50   54.0    57    4.3   326      7.9   849.2    0.00       0    999.0
 129    3:00   53.6    58    4.3   312      7.8   849.2    0.00       0    999.0
 129    3:10   54.0    61    6.1   312      9.2   849.2    0.00       0    999.0
 129    3:20   53.7    64    5.0   315      6.9   849.2    0.00       0    999.0
 129    3:30   53.2    66    4.9   317      7.0   849.3    0.00       0    999.0
 129    3:40   53.3    66    6.4   314      9.0   849.3    0.00       0    999.0
 129    3:50   53.0    65    5.6   316      8.2   849.4    0.00       0    999.0
 129    4:00   53.0    63    5.5   316      8.0   849.4    0.00       0    999.0
 129    4:10   52.7    58    4.8   303      7.9   849.5    0.00       0    999.0
 129    4:20   52.4    59    3.1   302      5.0   849.5    0.00       0    999.0
 129    4:30   51.7    62    2.3   292      6.9   849.5    0.00       0    999.0
 129    4:40   51.1    63    2.4   314      5.6   849.5    0.00       0    999.0
 129    4:50   50.1    61    2.2   265      4.7   849.5    0.00       1    999.0
 129    5:00   49.2    65    1.2   315      2.2   849.6    0.00       3    999.0
 129    5:10   49.2    62    1.2   294      2.9   849.7    0.00      12    999.0
 129    5:20   50.1    62    1.7   277      2.9   849.8    0.00      29    999.0
 129    5:30   50.3    62    1.3   274      3.2   849.9    0.00      54    999.0
 129    5:40   52.6    61    0.2   254      1.5   850.0    0.00      87    999.0
 129    5:50   54.3    62    1.0   284      2.6   850.0    0.00     120    999.0
 129    6:00   54.8    57    2.3   113      3.4   850.1    0.00     151    999.0

Return to Yerington, Nevada graphs page.


Western Regional Climate Center,wrcc@dri.edu